sensor_id;sensor_type;location;lat;lon;timestamp;P1;durP1;ratioP1;P2;durP2;ratioP2
26620;SDS011;14253;44.840;10.444;2024-02-23T00:02:05;70.57;;;36.83;;
26620;SDS011;14253;44.840;10.444;2024-02-23T00:04:31;74.80;;;38.63;;
26620;SDS011;14253;44.840;10.444;2024-02-23T00:06:57;66.70;;;37.60;;
26620;SDS011;14253;44.840;10.444;2024-02-23T00:09:22;67.05;;;37.58;;
26620;SDS011;14253;44.840;10.444;2024-02-23T00:11:49;66.68;;;36.78;;
26620;SDS011;14253;44.840;10.444;2024-02-23T00:14:15;65.97;;;36.70;;
26620;SDS011;14253;44.840;10.444;2024-02-23T00:16:45;67.93;;;37.05;;
26620;SDS011;14253;44.840;10.444;2024-02-23T00:19:11;65.88;;;36.67;;
26620;SDS011;14253;44.840;10.444;2024-02-23T00:21:38;62.42;;;36.08;;
26620;SDS011;14253;44.840;10.444;2024-02-23T00:24:07;67.50;;;36.70;;
26620;SDS011;14253;44.840;10.444;2024-02-23T00:26:34;65.90;;;35.95;;
26620;SDS011;14253;44.840;10.444;2024-02-23T00:29:00;61.50;;;36.33;;
26620;SDS011;14253;44.840;10.444;2024-02-23T00:31:27;67.60;;;37.08;;
26620;SDS011;14253;44.840;10.444;2024-02-23T00:33:53;63.67;;;35.33;;
26620;SDS011;14253;44.840;10.444;2024-02-23T00:36:19;59.60;;;33.80;;
26620;SDS011;14253;44.840;10.444;2024-02-23T00:38:45;60.80;;;33.70;;
26620;SDS011;14253;44.840;10.444;2024-02-23T00:41:11;59.60;;;33.72;;
26620;SDS011;14253;44.840;10.444;2024-02-23T00:43:38;59.75;;;32.83;;
26620;SDS011;14253;44.840;10.444;2024-02-23T00:46:04;61.15;;;33.10;;
26620;SDS011;14253;44.840;10.444;2024-02-23T00:48:31;58.20;;;31.88;;
26620;SDS011;14253;44.840;10.444;2024-02-23T00:50:57;57.92;;;31.38;;
26620;SDS011;14253;44.840;10.444;2024-02-23T00:53:22;58.05;;;30.70;;
26620;SDS011;14253;44.840;10.444;2024-02-23T00:55:48;54.13;;;30.65;;
26620;SDS011;14253;44.840;10.444;2024-02-23T00:58:14;55.88;;;31.25;;
26620;SDS011;14253;44.840;10.444;2024-02-23T01:00:41;53.85;;;30.45;;
26620;SDS011;14253;44.840;10.444;2024-02-23T01:03:07;54.28;;;30.45;;
26620;SDS011;14253;44.840;10.444;2024-02-23T01:05:33;54.70;;;29.90;;
26620;SDS011;14253;44.840;10.444;2024-02-23T01:07:59;49.92;;;27.25;;
26620;SDS011;14253;44.840;10.444;2024-02-23T01:10:25;45.65;;;27.85;;
26620;SDS011;14253;44.840;10.444;2024-02-23T01:12:51;46.70;;;27.02;;
26620;SDS011;14253;44.840;10.444;2024-02-23T01:15:16;44.80;;;27.50;;
26620;SDS011;14253;44.840;10.444;2024-02-23T01:17:42;56.85;;;27.38;;
26620;SDS011;14253;44.840;10.444;2024-02-23T01:20:08;45.03;;;26.65;;
26620;SDS011;14253;44.840;10.444;2024-02-23T01:22:35;46.45;;;27.13;;
26620;SDS011;14253;44.840;10.444;2024-02-23T01:25:01;44.63;;;26.30;;
26620;SDS011;14253;44.840;10.444;2024-02-23T01:27:27;43.65;;;25.05;;
26620;SDS011;14253;44.840;10.444;2024-02-23T01:29:53;40.22;;;24.83;;
26620;SDS011;14253;44.840;10.444;2024-02-23T01:32:19;48.30;;;26.65;;
26620;SDS011;14253;44.840;10.444;2024-02-23T01:34:45;44.30;;;25.08;;
26620;SDS011;14253;44.840;10.444;2024-02-23T01:37:11;42.25;;;24.75;;
26620;SDS011;14253;44.840;10.444;2024-02-23T01:39:37;41.70;;;24.27;;
26620;SDS011;14253;44.840;10.444;2024-02-23T01:42:03;42.92;;;24.42;;
26620;SDS011;14253;44.840;10.444;2024-02-23T01:44:29;45.17;;;26.38;;
26620;SDS011;14253;44.840;10.444;2024-02-23T01:46:55;40.70;;;24.13;;
26620;SDS011;14253;44.840;10.444;2024-02-23T01:49:22;41.92;;;26.08;;
26620;SDS011;14253;44.840;10.444;2024-02-23T01:51:55;42.83;;;24.17;;
26620;SDS011;14253;44.840;10.444;2024-02-23T01:54:22;42.88;;;25.27;;
26620;SDS011;14253;44.840;10.444;2024-02-23T01:56:49;46.08;;;24.23;;
26620;SDS011;14253;44.840;10.444;2024-02-23T01:59:15;39.45;;;24.75;;
26620;SDS011;14253;44.840;10.444;2024-02-23T02:01:45;46.17;;;24.45;;
26620;SDS011;14253;44.840;10.444;2024-02-23T02:04:11;36.42;;;22.80;;
26620;SDS011;14253;44.840;10.444;2024-02-23T02:06:37;41.55;;;24.58;;
26620;SDS011;14253;44.840;10.444;2024-02-23T02:09:04;34.08;;;22.08;;
26620;SDS011;14253;44.840;10.444;2024-02-23T02:11:30;34.97;;;20.67;;
26620;SDS011;14253;44.840;10.444;2024-02-23T02:13:56;36.83;;;21.13;;
26620;SDS011;14253;44.840;10.444;2024-02-23T02:16:22;35.17;;;21.83;;
26620;SDS011;14253;44.840;10.444;2024-02-23T02:18:48;32.35;;;19.90;;
26620;SDS011;14253;44.840;10.444;2024-02-23T02:21:14;31.70;;;19.00;;
26620;SDS011;14253;44.840;10.444;2024-02-23T02:23:40;30.17;;;19.33;;
26620;SDS011;14253;44.840;10.444;2024-02-23T02:26:06;30.67;;;17.95;;
26620;SDS011;14253;44.840;10.444;2024-02-23T02:28:32;29.95;;;18.08;;
26620;SDS011;14253;44.840;10.444;2024-02-23T02:30:59;31.15;;;17.80;;
26620;SDS011;14253;44.840;10.444;2024-02-23T02:33:25;27.58;;;17.65;;
26620;SDS011;14253;44.840;10.444;2024-02-23T02:35:51;27.00;;;16.00;;
26620;SDS011;14253;44.840;10.444;2024-02-23T02:38:17;29.77;;;16.83;;
26620;SDS011;14253;44.840;10.444;2024-02-23T02:40:43;28.05;;;16.58;;
26620;SDS011;14253;44.840;10.444;2024-02-23T02:43:09;26.20;;;15.95;;
26620;SDS011;14253;44.840;10.444;2024-02-23T02:45:35;25.42;;;15.68;;
26620;SDS011;14253;44.840;10.444;2024-02-23T02:48:02;28.23;;;15.45;;
26620;SDS011;14253;44.840;10.444;2024-02-23T02:50:28;23.35;;;14.75;;
26620;SDS011;14253;44.840;10.444;2024-02-23T02:52:54;25.55;;;14.93;;
26620;SDS011;14253;44.840;10.444;2024-02-23T02:55:20;25.05;;;14.05;;
26620;SDS011;14253;44.840;10.444;2024-02-23T02:57:46;24.25;;;13.57;;
26620;SDS011;14253;44.840;10.444;2024-02-23T03:00:12;23.42;;;14.60;;
26620;SDS011;14253;44.840;10.444;2024-02-23T03:02:38;23.48;;;12.98;;
26620;SDS011;14253;44.840;10.444;2024-02-23T03:05:04;26.35;;;14.70;;
26620;SDS011;14253;44.840;10.444;2024-02-23T03:07:31;21.73;;;12.73;;
26620;SDS011;14253;44.840;10.444;2024-02-23T03:09:56;22.60;;;13.32;;
26620;SDS011;14253;44.840;10.444;2024-02-23T03:12:22;28.52;;;13.77;;
26620;SDS011;14253;44.840;10.444;2024-02-23T03:14:48;20.80;;;12.82;;
26620;SDS011;14253;44.840;10.444;2024-02-23T03:17:15;20.30;;;13.35;;
26620;SDS011;14253;44.840;10.444;2024-02-23T03:19:41;21.63;;;14.05;;
26620;SDS011;14253;44.840;10.444;2024-02-23T03:22:07;24.70;;;14.52;;
26620;SDS011;14253;44.840;10.444;2024-02-23T03:24:33;25.52;;;13.98;;
26620;SDS011;14253;44.840;10.444;2024-02-23T03:26:59;23.60;;;13.77;;
26620;SDS011;14253;44.840;10.444;2024-02-23T03:29:25;25.40;;;14.57;;
26620;SDS011;14253;44.840;10.444;2024-02-23T03:31:55;23.45;;;13.50;;
26620;SDS011;14253;44.840;10.444;2024-02-23T03:34:21;23.80;;;14.23;;
26620;SDS011;14253;44.840;10.444;2024-02-23T03:36:47;23.35;;;13.20;;
26620;SDS011;14253;44.840;10.444;2024-02-23T03:39:13;27.23;;;13.45;;
26620;SDS011;14253;44.840;10.444;2024-02-23T03:41:39;21.58;;;13.02;;
26620;SDS011;14253;44.840;10.444;2024-02-23T03:44:05;24.77;;;14.05;;
26620;SDS011;14253;44.840;10.444;2024-02-23T03:46:31;21.67;;;13.32;;
26620;SDS011;14253;44.840;10.444;2024-02-23T03:48:57;23.98;;;13.63;;
26620;SDS011;14253;44.840;10.444;2024-02-23T03:51:23;28.42;;;14.32;;
26620;SDS011;14253;44.840;10.444;2024-02-23T03:53:49;21.63;;;12.77;;
26620;SDS011;14253;44.840;10.444;2024-02-23T03:56:15;21.52;;;13.07;;
26620;SDS011;14253;44.840;10.444;2024-02-23T03:58:41;20.23;;;12.45;;
26620;SDS011;14253;44.840;10.444;2024-02-23T04:01:07;18.92;;;10.88;;
26620;SDS011;14253;44.840;10.444;2024-02-23T04:03:33;21.42;;;12.00;;
26620;SDS011;14253;44.840;10.444;2024-02-23T04:05:59;24.10;;;11.98;;
26620;SDS011;14253;44.840;10.444;2024-02-23T04:08:25;18.10;;;10.32;;
26620;SDS011;14253;44.840;10.444;2024-02-23T04:10:52;19.13;;;11.32;;
26620;SDS011;14253;44.840;10.444;2024-02-23T04:13:18;20.30;;;10.95;;
26620;SDS011;14253;44.840;10.444;2024-02-23T04:15:45;16.33;;;10.60;;
26620;SDS011;14253;44.840;10.444;2024-02-23T04:18:11;15.57;;;10.48;;
26620;SDS011;14253;44.840;10.444;2024-02-23T04:20:37;18.40;;;10.80;;
26620;SDS011;14253;44.840;10.444;2024-02-23T04:23:03;18.27;;;10.27;;
26620;SDS011;14253;44.840;10.444;2024-02-23T04:25:29;18.15;;;9.88;;
26620;SDS011;14253;44.840;10.444;2024-02-23T04:27:55;19.65;;;10.85;;
26620;SDS011;14253;44.840;10.444;2024-02-23T04:30:21;17.95;;;8.80;;
26620;SDS011;14253;44.840;10.444;2024-02-23T04:32:47;16.27;;;9.05;;
26620;SDS011;14253;44.840;10.444;2024-02-23T04:35:21;13.98;;;8.65;;
26620;SDS011;14253;44.840;10.444;2024-02-23T04:38:02;14.52;;;8.65;;
26620;SDS011;14253;44.840;10.444;2024-02-23T04:40:28;12.30;;;8.50;;
26620;SDS011;14253;44.840;10.444;2024-02-23T04:42:54;18.50;;;9.05;;
26620;SDS011;14253;44.840;10.444;2024-02-23T04:45:20;16.38;;;8.45;;
26620;SDS011;14253;44.840;10.444;2024-02-23T04:47:45;16.10;;;7.70;;
26620;SDS011;14253;44.840;10.444;2024-02-23T04:50:13;15.20;;;7.45;;
26620;SDS011;14253;44.840;10.444;2024-02-23T04:52:40;11.05;;;6.30;;
26620;SDS011;14253;44.840;10.444;2024-02-23T04:55:05;9.40;;;6.22;;
26620;SDS011;14253;44.840;10.444;2024-02-23T04:57:32;11.40;;;5.78;;
26620;SDS011;14253;44.840;10.444;2024-02-23T04:59:58;8.13;;;5.63;;
26620;SDS011;14253;44.840;10.444;2024-02-23T05:02:24;10.65;;;5.25;;
26620;SDS011;14253;44.840;10.444;2024-02-23T05:04:54;12.63;;;5.40;;
26620;SDS011;14253;44.840;10.444;2024-02-23T05:07:20;12.63;;;4.60;;
26620;SDS011;14253;44.840;10.444;2024-02-23T05:09:46;7.35;;;4.18;;
26620;SDS011;14253;44.840;10.444;2024-02-23T05:12:12;8.13;;;3.65;;
26620;SDS011;14253;44.840;10.444;2024-02-23T05:14:38;13.27;;;3.50;;
26620;SDS011;14253;44.840;10.444;2024-02-23T05:17:04;5.70;;;3.58;;
26620;SDS011;14253;44.840;10.444;2024-02-23T05:19:29;10.38;;;3.28;;
26620;SDS011;14253;44.840;10.444;2024-02-23T05:21:55;6.18;;;2.80;;
26620;SDS011;14253;44.840;10.444;2024-02-23T05:24:21;9.65;;;3.78;;
26620;SDS011;14253;44.840;10.444;2024-02-23T05:26:47;7.22;;;2.85;;
26620;SDS011;14253;44.840;10.444;2024-02-23T05:29:13;6.25;;;2.58;;
26620;SDS011;14253;44.840;10.444;2024-02-23T05:31:43;5.03;;;2.85;;
26620;SDS011;14253;44.840;10.444;2024-02-23T05:34:13;9.10;;;3.40;;
26620;SDS011;14253;44.840;10.444;2024-02-23T05:36:40;11.25;;;3.33;;
26620;SDS011;14253;44.840;10.444;2024-02-23T05:39:06;13.35;;;5.40;;
26620;SDS011;14253;44.840;10.444;2024-02-23T05:41:33;7.07;;;3.13;;
26620;SDS011;14253;44.840;10.444;2024-02-23T05:43:59;10.57;;;2.72;;
26620;SDS011;14253;44.840;10.444;2024-02-23T05:46:25;7.80;;;3.03;;
26620;SDS011;14253;44.840;10.444;2024-02-23T05:48:51;7.60;;;3.15;;
26620;SDS011;14253;44.840;10.444;2024-02-23T05:51:17;8.20;;;2.80;;
26620;SDS011;14253;44.840;10.444;2024-02-23T05:53:43;10.40;;;3.03;;
26620;SDS011;14253;44.840;10.444;2024-02-23T05:56:09;8.43;;;2.70;;
26620;SDS011;14253;44.840;10.444;2024-02-23T05:58:35;10.07;;;3.08;;
26620;SDS011;14253;44.840;10.444;2024-02-23T06:01:01;11.77;;;3.20;;
26620;SDS011;14253;44.840;10.444;2024-02-23T06:03:27;10.15;;;3.38;;
26620;SDS011;14253;44.840;10.444;2024-02-23T06:05:53;8.07;;;3.40;;
26620;SDS011;14253;44.840;10.444;2024-02-23T06:08:19;7.65;;;3.30;;
26620;SDS011;14253;44.840;10.444;2024-02-23T06:10:45;7.47;;;3.35;;
26620;SDS011;14253;44.840;10.444;2024-02-23T06:13:11;8.27;;;3.10;;
26620;SDS011;14253;44.840;10.444;2024-02-23T06:15:37;11.57;;;3.50;;
26620;SDS011;14253;44.840;10.444;2024-02-23T06:18:04;9.25;;;4.28;;
26620;SDS011;14253;44.840;10.444;2024-02-23T06:20:30;10.57;;;5.32;;
26620;SDS011;14253;44.840;10.444;2024-02-23T06:22:56;11.95;;;6.50;;
26620;SDS011;14253;44.840;10.444;2024-02-23T06:25:22;12.70;;;6.90;;
26620;SDS011;14253;44.840;10.444;2024-02-23T06:27:48;14.48;;;8.77;;
26620;SDS011;14253;44.840;10.444;2024-02-23T06:30:14;17.77;;;9.25;;
26620;SDS011;14253;44.840;10.444;2024-02-23T06:32:40;19.00;;;10.20;;
26620;SDS011;14253;44.840;10.444;2024-02-23T06:35:08;20.02;;;11.63;;
26620;SDS011;14253;44.840;10.444;2024-02-23T06:37:37;23.33;;;12.95;;
26620;SDS011;14253;44.840;10.444;2024-02-23T06:40:03;23.90;;;13.10;;
26620;SDS011;14253;44.840;10.444;2024-02-23T06:42:29;23.00;;;13.07;;
26620;SDS011;14253;44.840;10.444;2024-02-23T06:44:55;20.20;;;12.60;;
26620;SDS011;14253;44.840;10.444;2024-02-23T06:47:21;24.50;;;14.13;;
26620;SDS011;14253;44.840;10.444;2024-02-23T06:49:47;18.85;;;12.90;;
26620;SDS011;14253;44.840;10.444;2024-02-23T06:52:13;20.52;;;12.82;;
26620;SDS011;14253;44.840;10.444;2024-02-23T06:54:39;22.33;;;14.45;;
26620;SDS011;14253;44.840;10.444;2024-02-23T06:57:05;22.83;;;14.20;;
26620;SDS011;14253;44.840;10.444;2024-02-23T06:59:31;23.98;;;14.63;;
26620;SDS011;14253;44.840;10.444;2024-02-23T07:01:57;27.58;;;15.32;;
26620;SDS011;14253;44.840;10.444;2024-02-23T07:04:23;26.52;;;14.68;;
26620;SDS011;14253;44.840;10.444;2024-02-23T07:06:50;24.13;;;14.63;;
26620;SDS011;14253;44.840;10.444;2024-02-23T07:09:16;24.10;;;15.38;;
26620;SDS011;14253;44.840;10.444;2024-02-23T07:11:42;24.92;;;15.43;;
26620;SDS011;14253;44.840;10.444;2024-02-23T07:14:09;22.33;;;15.43;;
26620;SDS011;14253;44.840;10.444;2024-02-23T07:16:38;25.50;;;15.82;;
26620;SDS011;14253;44.840;10.444;2024-02-23T07:19:05;22.20;;;14.80;;
26620;SDS011;14253;44.840;10.444;2024-02-23T07:21:30;30.17;;;16.05;;
26620;SDS011;14253;44.840;10.444;2024-02-23T07:23:56;26.50;;;16.38;;
26620;SDS011;14253;44.840;10.444;2024-02-23T07:26:22;29.15;;;17.48;;
26620;SDS011;14253;44.840;10.444;2024-02-23T07:28:48;31.48;;;16.80;;
26620;SDS011;14253;44.840;10.444;2024-02-23T07:31:14;33.38;;;17.92;;
26620;SDS011;14253;44.840;10.444;2024-02-23T07:33:40;28.25;;;18.73;;
26620;SDS011;14253;44.840;10.444;2024-02-23T07:36:09;33.53;;;19.08;;
26620;SDS011;14253;44.840;10.444;2024-02-23T07:38:40;34.55;;;18.52;;
26620;SDS011;14253;44.840;10.444;2024-02-23T07:41:05;33.00;;;20.45;;
26620;SDS011;14253;44.840;10.444;2024-02-23T07:43:32;40.25;;;20.50;;
26620;SDS011;14253;44.840;10.444;2024-02-23T07:45:58;32.30;;;19.25;;
26620;SDS011;14253;44.840;10.444;2024-02-23T07:48:24;34.50;;;21.10;;
26620;SDS011;14253;44.840;10.444;2024-02-23T07:50:50;37.33;;;20.52;;
26620;SDS011;14253;44.840;10.444;2024-02-23T07:53:16;38.75;;;20.60;;
26620;SDS011;14253;44.840;10.444;2024-02-23T07:55:42;38.22;;;20.17;;
26620;SDS011;14253;44.840;10.444;2024-02-23T07:58:08;33.35;;;19.85;;
26620;SDS011;14253;44.840;10.444;2024-02-23T08:00:34;37.95;;;22.15;;
26620;SDS011;14253;44.840;10.444;2024-02-23T08:03:03;35.67;;;21.52;;
26620;SDS011;14253;44.840;10.444;2024-02-23T08:05:29;39.92;;;22.45;;
26620;SDS011;14253;44.840;10.444;2024-02-23T08:07:55;37.75;;;22.10;;
26620;SDS011;14253;44.840;10.444;2024-02-23T08:10:21;36.90;;;22.40;;
26620;SDS011;14253;44.840;10.444;2024-02-23T08:12:47;35.05;;;22.30;;
26620;SDS011;14253;44.840;10.444;2024-02-23T08:15:13;38.33;;;23.05;;
26620;SDS011;14253;44.840;10.444;2024-02-23T08:17:39;35.28;;;21.98;;
26620;SDS011;14253;44.840;10.444;2024-02-23T08:20:05;34.63;;;23.38;;
26620;SDS011;14253;44.840;10.444;2024-02-23T08:22:32;37.70;;;22.70;;
26620;SDS011;14253;44.840;10.444;2024-02-23T08:24:57;41.88;;;26.52;;
26620;SDS011;14253;44.840;10.444;2024-02-23T08:27:23;42.42;;;23.15;;
26620;SDS011;14253;44.840;10.444;2024-02-23T08:29:49;35.03;;;23.63;;
26620;SDS011;14253;44.840;10.444;2024-02-23T08:32:15;43.17;;;24.83;;
26620;SDS011;14253;44.840;10.444;2024-02-23T08:34:42;36.25;;;23.25;;
26620;SDS011;14253;44.840;10.444;2024-02-23T08:37:08;37.75;;;23.27;;
26620;SDS011;14253;44.840;10.444;2024-02-23T08:39:34;42.33;;;23.70;;
26620;SDS011;14253;44.840;10.444;2024-02-23T08:42:02;37.53;;;22.85;;
26620;SDS011;14253;44.840;10.444;2024-02-23T08:44:28;43.80;;;24.60;;
26620;SDS011;14253;44.840;10.444;2024-02-23T08:46:54;41.50;;;23.60;;
26620;SDS011;14253;44.840;10.444;2024-02-23T08:49:20;37.95;;;24.25;;
26620;SDS011;14253;44.840;10.444;2024-02-23T08:51:46;40.47;;;23.98;;
26620;SDS011;14253;44.840;10.444;2024-02-23T08:54:12;39.88;;;22.83;;
26620;SDS011;14253;44.840;10.444;2024-02-23T08:56:38;42.25;;;24.90;;
26620;SDS011;14253;44.840;10.444;2024-02-23T08:59:07;39.78;;;24.80;;
26620;SDS011;14253;44.840;10.444;2024-02-23T09:01:34;38.95;;;23.33;;
26620;SDS011;14253;44.840;10.444;2024-02-23T09:04:00;43.92;;;23.88;;
26620;SDS011;14253;44.840;10.444;2024-02-23T09:06:27;35.00;;;23.70;;
26620;SDS011;14253;44.840;10.444;2024-02-23T09:08:53;39.80;;;23.40;;
26620;SDS011;14253;44.840;10.444;2024-02-23T09:11:19;42.45;;;22.27;;
26620;SDS011;14253;44.840;10.444;2024-02-23T09:13:45;33.42;;;21.92;;
26620;SDS011;14253;44.840;10.444;2024-02-23T09:16:11;33.72;;;20.83;;
26620;SDS011;14253;44.840;10.444;2024-02-23T09:18:37;27.60;;;18.95;;
26620;SDS011;14253;44.840;10.444;2024-02-23T09:21:03;30.77;;;18.58;;
26620;SDS011;14253;44.840;10.444;2024-02-23T09:23:29;25.05;;;16.80;;
26620;SDS011;14253;44.840;10.444;2024-02-23T09:25:55;20.48;;;15.60;;
26620;SDS011;14253;44.840;10.444;2024-02-23T09:28:21;18.30;;;13.95;;
26620;SDS011;14253;44.840;10.444;2024-02-23T09:30:47;23.33;;;14.27;;
26620;SDS011;14253;44.840;10.444;2024-02-23T09:33:13;17.77;;;11.82;;
26620;SDS011;14253;44.840;10.444;2024-02-23T09:35:39;16.33;;;10.98;;
26620;SDS011;14253;44.840;10.444;2024-02-23T09:38:06;17.25;;;10.77;;
26620;SDS011;14253;44.840;10.444;2024-02-23T09:40:35;14.57;;;9.52;;
26620;SDS011;14253;44.840;10.444;2024-02-23T09:43:02;14.10;;;9.50;;
26620;SDS011;14253;44.840;10.444;2024-02-23T09:45:33;20.67;;;10.15;;
26620;SDS011;14253;44.840;10.444;2024-02-23T09:47:59;18.08;;;10.63;;
26620;SDS011;14253;44.840;10.444;2024-02-23T09:50:28;15.65;;;9.88;;
26620;SDS011;14253;44.840;10.444;2024-02-23T09:52:56;14.68;;;9.98;;
26620;SDS011;14253;44.840;10.444;2024-02-23T09:55:24;13.93;;;10.10;;
26620;SDS011;14253;44.840;10.444;2024-02-23T09:57:51;14.45;;;10.40;;
26620;SDS011;14253;44.840;10.444;2024-02-23T10:00:22;15.95;;;11.25;;
26620;SDS011;14253;44.840;10.444;2024-02-23T10:02:49;14.35;;;10.45;;
26620;SDS011;14253;44.840;10.444;2024-02-23T10:05:16;14.60;;;10.88;;
26620;SDS011;14253;44.840;10.444;2024-02-23T10:07:42;16.50;;;11.27;;
26620;SDS011;14253;44.840;10.444;2024-02-23T10:10:09;16.38;;;11.18;;
26620;SDS011;14253;44.840;10.444;2024-02-23T10:12:39;15.98;;;11.15;;
26620;SDS011;14253;44.840;10.444;2024-02-23T10:15:05;15.05;;;10.40;;
26620;SDS011;14253;44.840;10.444;2024-02-23T10:17:32;16.23;;;10.45;;
26620;SDS011;14253;44.840;10.444;2024-02-23T10:20:01;22.02;;;14.27;;
26620;SDS011;14253;44.840;10.444;2024-02-23T10:22:30;16.52;;;11.98;;
26620;SDS011;14253;44.840;10.444;2024-02-23T10:24:56;16.58;;;10.38;;
26620;SDS011;14253;44.840;10.444;2024-02-23T10:27:23;15.50;;;10.32;;
26620;SDS011;14253;44.840;10.444;2024-02-23T10:29:49;20.38;;;12.43;;
26620;SDS011;14253;44.840;10.444;2024-02-23T10:32:16;15.35;;;10.23;;
26620;SDS011;14253;44.840;10.444;2024-02-23T10:34:44;16.25;;;10.52;;
26620;SDS011;14253;44.840;10.444;2024-02-23T10:37:14;13.88;;;10.13;;
26620;SDS011;14253;44.840;10.444;2024-02-23T10:39:40;15.63;;;11.13;;
26620;SDS011;14253;44.840;10.444;2024-02-23T10:42:08;18.17;;;11.18;;
26620;SDS011;14253;44.840;10.444;2024-02-23T10:44:35;18.27;;;13.10;;
26620;SDS011;14253;44.840;10.444;2024-02-23T10:47:02;16.92;;;10.90;;
26620;SDS011;14253;44.840;10.444;2024-02-23T10:49:30;13.70;;;9.30;;
26620;SDS011;14253;44.840;10.444;2024-02-23T10:51:56;17.23;;;9.85;;
26620;SDS011;14253;44.840;10.444;2024-02-23T10:54:22;15.25;;;10.00;;
26620;SDS011;14253;44.840;10.444;2024-02-23T10:56:50;13.63;;;9.07;;
26620;SDS011;14253;44.840;10.444;2024-02-23T10:59:17;13.75;;;8.95;;
26620;SDS011;14253;44.840;10.444;2024-02-23T11:01:45;13.48;;;9.73;;
26620;SDS011;14253;44.840;10.444;2024-02-23T11:04:17;13.82;;;8.85;;
26620;SDS011;14253;44.840;10.444;2024-02-23T11:06:49;11.95;;;8.82;;
26620;SDS011;14253;44.840;10.444;2024-02-23T11:09:15;12.10;;;8.80;;
26620;SDS011;14253;44.840;10.444;2024-02-23T11:11:50;11.80;;;9.32;;
26620;SDS011;14253;44.840;10.444;2024-02-23T11:16:57;13.07;;;8.32;;
26620;SDS011;14253;44.840;10.444;2024-02-23T11:19:31;34.25;;;22.33;;
26620;SDS011;14253;44.840;10.444;2024-02-23T11:21:58;49.20;;;32.42;;
26620;SDS011;14253;44.840;10.444;2024-02-23T11:24:25;20.63;;;15.05;;
26620;SDS011;14253;44.840;10.444;2024-02-23T11:26:58;19.52;;;15.18;;
26620;SDS011;14253;44.840;10.444;2024-02-23T11:29:29;15.73;;;9.98;;
26620;SDS011;14253;44.840;10.444;2024-02-23T11:31:55;11.60;;;9.93;;
26620;SDS011;14253;44.840;10.444;2024-02-23T11:34:26;11.50;;;9.20;;
26620;SDS011;14253;44.840;10.444;2024-02-23T11:36:52;14.50;;;8.80;;
26620;SDS011;14253;44.840;10.444;2024-02-23T11:39:19;12.15;;;9.23;;
26620;SDS011;14253;44.840;10.444;2024-02-23T11:41:49;11.32;;;8.95;;
26620;SDS011;14253;44.840;10.444;2024-02-23T11:44:16;11.50;;;10.05;;
26620;SDS011;14253;44.840;10.444;2024-02-23T11:46:46;25.08;;;16.42;;
26620;SDS011;14253;44.840;10.444;2024-02-23T11:49:13;16.25;;;11.80;;
26620;SDS011;14253;44.840;10.444;2024-02-23T11:51:40;22.67;;;16.05;;
26620;SDS011;14253;44.840;10.444;2024-02-23T11:54:07;15.40;;;11.57;;
26620;SDS011;14253;44.840;10.444;2024-02-23T11:56:33;21.35;;;14.65;;
26620;SDS011;14253;44.840;10.444;2024-02-23T11:58:59;17.23;;;13.65;;
26620;SDS011;14253;44.840;10.444;2024-02-23T12:01:25;19.75;;;14.52;;
26620;SDS011;14253;44.840;10.444;2024-02-23T12:03:54;23.25;;;15.35;;
26620;SDS011;14253;44.840;10.444;2024-02-23T12:06:20;21.52;;;16.52;;
26620;SDS011;14253;44.840;10.444;2024-02-23T12:08:47;19.25;;;14.73;;
26620;SDS011;14253;44.840;10.444;2024-02-23T12:11:13;19.40;;;14.57;;
26620;SDS011;14253;44.840;10.444;2024-02-23T12:13:40;22.25;;;16.73;;
26620;SDS011;14253;44.840;10.444;2024-02-23T12:16:09;22.35;;;15.90;;
26620;SDS011;14253;44.840;10.444;2024-02-23T12:18:35;21.73;;;15.23;;
26620;SDS011;14253;44.840;10.444;2024-02-23T12:21:04;19.10;;;14.00;;
26620;SDS011;14253;44.840;10.444;2024-02-23T12:23:45;20.52;;;15.00;;
26620;SDS011;14253;44.840;10.444;2024-02-23T12:26:14;22.55;;;16.40;;
26620;SDS011;14253;44.840;10.444;2024-02-23T12:28:42;23.92;;;18.45;;
26620;SDS011;14253;44.840;10.444;2024-02-23T12:31:08;24.13;;;16.38;;
26620;SDS011;14253;44.840;10.444;2024-02-23T12:33:35;24.58;;;18.45;;
26620;SDS011;14253;44.840;10.444;2024-02-23T12:36:07;26.70;;;18.88;;
26620;SDS011;14253;44.840;10.444;2024-02-23T12:38:35;29.67;;;18.48;;
26620;SDS011;14253;44.840;10.444;2024-02-23T12:41:02;21.85;;;17.02;;
26620;SDS011;14253;44.840;10.444;2024-02-23T12:43:29;21.08;;;14.63;;
26620;SDS011;14253;44.840;10.444;2024-02-23T12:45:56;22.10;;;18.23;;
26620;SDS011;14253;44.840;10.444;2024-02-23T12:48:23;23.15;;;17.75;;
26620;SDS011;14253;44.840;10.444;2024-02-23T12:50:49;23.30;;;17.65;;
26620;SDS011;14253;44.840;10.444;2024-02-23T12:56:01;16.40;;;13.07;;
26620;SDS011;14253;44.840;10.444;2024-02-23T12:58:40;21.70;;;15.20;;
26620;SDS011;14253;44.840;10.444;2024-02-23T13:01:09;15.65;;;12.13;;
26620;SDS011;14253;44.840;10.444;2024-02-23T13:03:38;13.13;;;9.95;;
26620;SDS011;14253;44.840;10.444;2024-02-23T13:06:07;13.95;;;10.38;;
26620;SDS011;14253;44.840;10.444;2024-02-23T13:08:34;14.10;;;10.48;;
26620;SDS011;14253;44.840;10.444;2024-02-23T13:11:00;19.58;;;12.05;;
26620;SDS011;14253;44.840;10.444;2024-02-23T13:13:27;16.55;;;11.90;;
26620;SDS011;14253;44.840;10.444;2024-02-23T13:15:55;13.30;;;9.85;;
26620;SDS011;14253;44.840;10.444;2024-02-23T13:18:22;14.82;;;10.25;;
26620;SDS011;14253;44.840;10.444;2024-02-23T13:20:49;12.30;;;9.80;;
26620;SDS011;14253;44.840;10.444;2024-02-23T13:23:19;12.50;;;10.32;;
26620;SDS011;14253;44.840;10.444;2024-02-23T13:25:45;12.05;;;9.60;;
26620;SDS011;14253;44.840;10.444;2024-02-23T13:28:11;13.13;;;10.93;;
26620;SDS011;14253;44.840;10.444;2024-02-23T13:30:37;14.07;;;10.63;;
26620;SDS011;14253;44.840;10.444;2024-02-23T13:33:04;14.10;;;11.23;;
26620;SDS011;14253;44.840;10.444;2024-02-23T13:35:31;15.23;;;11.75;;
26620;SDS011;14253;44.840;10.444;2024-02-23T13:37:59;13.80;;;11.68;;
26620;SDS011;14253;44.840;10.444;2024-02-23T13:40:28;17.02;;;11.45;;
26620;SDS011;14253;44.840;10.444;2024-02-23T13:42:56;15.40;;;11.88;;
26620;SDS011;14253;44.840;10.444;2024-02-23T13:45:22;14.52;;;11.30;;
26620;SDS011;14253;44.840;10.444;2024-02-23T13:47:57;16.88;;;12.20;;
26620;SDS011;14253;44.840;10.444;2024-02-23T13:50:24;16.52;;;12.75;;
26620;SDS011;14253;44.840;10.444;2024-02-23T13:52:51;16.83;;;12.02;;
26620;SDS011;14253;44.840;10.444;2024-02-23T13:55:17;17.25;;;13.88;;
26620;SDS011;14253;44.840;10.444;2024-02-23T13:57:48;17.55;;;12.77;;
26620;SDS011;14253;44.840;10.444;2024-02-23T14:00:17;18.40;;;13.43;;
26620;SDS011;14253;44.840;10.444;2024-02-23T14:02:44;17.15;;;13.15;;
26620;SDS011;14253;44.840;10.444;2024-02-23T14:05:10;17.90;;;13.80;;
26620;SDS011;14253;44.840;10.444;2024-02-23T14:07:37;18.65;;;13.85;;
26620;SDS011;14253;44.840;10.444;2024-02-23T14:10:03;14.95;;;12.23;;
26620;SDS011;14253;44.840;10.444;2024-02-23T14:12:29;13.82;;;10.85;;
26620;SDS011;14253;44.840;10.444;2024-02-23T14:15:00;12.57;;;9.63;;
26620;SDS011;14253;44.840;10.444;2024-02-23T14:17:26;12.70;;;9.13;;